Pantego, Texas
Current Conditions -  °F | °C
As of 9:35 PM on Friday 19 Dec 2014 (Local Time) from KGKY Reporting Station
Overcast Overcast  
Wind Chill:   Ceiling: 1100
Heat Index:   Visibility: 10mi
Dew Point:   Wind: 9mph
Humidity: 80%   Direction: 360°N
Pressure: 30.21"   Gusts: NA
Location:  32.6916°N, 97.1334°W
Report Text: KGKY 200335Z AUTO 36008KT 10SM OVC011 09/06 A3021 RMK AO2 T00940061
Loading
Personal Weather Stations






























Interactive Weather Map New forecast layout! Learn more

10-Day Weather Forecast

Advertisements
Track Severe Weather on mobile